Time;durP1;ratioP1;P1;durP2;ratioP2;P2;SDS_P1;SDS_P2;PMS_P1;PMS_P2;Temp;Humidity;BMP_temperature;BMP_pressure;BME280_temperature;BME280_humidity;BME280_pressure;Samples;Min_cycle;Max_cycle;Signal;HPM_P1;HPM_P2
2022/09/02 00:00:43;;;;;;;1.08;0.80;;;19.10;61.10;;;;;;5043284;28;20064;-79
2022/09/02 00:03:09;;;;;;;2.72;1.00;;;19.10;61.30;;;;;;5037767;28;20112;-78
2022/09/02 00:05:34;;;;;;;4.10;0.80;;;19.00;61.50;;;;;;5042161;28;20546;-79
2022/09/02 00:08:03;;;;;;;9.30;0.90;;;19.00;61.70;;;;;;5040800;28;20055;-78
2022/09/02 00:10:31;;;;;;;2.40;0.82;;;18.90;61.80;;;;;;5040427;28;20087;-80
2022/09/02 00:12:57;;;;;;;1.52;0.70;;;18.90;62.00;;;;;;5039295;28;20361;-80
2022/09/02 00:15:23;;;;;;;1.13;0.75;;;18.90;62.00;;;;;;5045454;28;20021;-78
2022/09/02 00:17:49;;;;;;;8.07;0.90;;;18.90;62.00;;;;;;5042811;28;20021;-75
2022/09/02 00:20:15;;;;;;;1.38;0.70;;;18.80;62.10;;;;;;5039840;28;20029;-79
2022/09/02 00:22:43;;;;;;;1.05;0.75;;;18.80;62.50;;;;;;5039005;28;20017;-79
2022/09/02 00:25:10;;;;;;;3.30;0.70;;;18.80;62.50;;;;;;5044171;28;20017;-78
2022/09/02 00:27:35;;;;;;;2.00;0.95;;;18.70;62.50;;;;;;5041260;28;20113;-78
2022/09/02 00:30:02;;;;;;;1.00;0.70;;;18.70;62.70;;;;;;5041844;28;20700;-76
2022/09/02 00:32:30;;;;;;;1.77;0.68;;;18.70;62.70;;;;;;5039958;28;20055;-76
2022/09/02 00:34:57;;;;;;;1.00;0.70;;;18.70;62.70;;;;;;5037807;28;20518;-76
2022/09/02 00:37:24;;;;;;;0.57;0.52;;;18.70;62.70;;;;;;5035721;28;20064;-76
2022/09/02 00:39:51;;;;;;;0.70;0.50;;;18.70;62.80;;;;;;5038593;28;20026;-75
2022/09/02 00:42:18;;;;;;;1.17;0.60;;;18.70;62.80;;;;;;5039884;28;20075;-75
2022/09/02 00:44:43;;;;;;;1.23;0.70;;;18.70;62.70;;;;;;5036908;28;20063;-75
2022/09/02 00:47:10;;;;;;;2.47;0.90;;;18.70;62.80;;;;;;5038272;28;20435;-75
2022/09/02 00:49:39;;;;;;;1.27;0.50;;;18.70;62.90;;;;;;5041814;28;20037;-75
2022/09/02 00:52:37;;;;;;;1.52;0.55;;;18.70;63.00;;;;;;5039687;28;20095;-76
2022/09/02 00:55:25;;;;;;;0.80;0.73;;;18.70;62.90;;;;;;5003643;28;20538;-75
2022/09/02 00:58:07;;;;;;;1.65;0.80;;;18.70;62.90;;;;;;5038556;28;20049;-76
2022/09/02 01:00:37;;;;;;;3.50;0.90;;;18.70;62.90;;;;;;5040833;28;20017;-76
2022/09/02 01:03:06;;;;;;;0.85;0.70;;;18.70;62.90;;;;;;5040682;28;20017;-75
2022/09/02 01:05:35;;;;;;;4.57;0.80;;;18.70;62.90;;;;;;5036558;28;20036;-76
2022/09/02 01:08:01;;;;;;;1.27;0.50;;;18.70;62.90;;;;;;5040316;28;20044;-75
2022/09/02 01:10:33;;;;;;;0.90;0.60;;;18.70;62.90;;;;;;5039507;28;20351;-77
2022/09/02 01:13:17;;;;;;;6.30;0.80;;;18.70;63.00;;;;;;5050250;28;20029;-78
2022/09/02 01:15:47;;;;;;;;;;;18.70;63.10;;;;;;5038879;28;20044;-74
2022/09/02 01:18:17;;;;;;;0.95;0.70;;;18.60;64.00;;;;;;5041854;28;20320;-75
2022/09/02 01:20:44;;;;;;;2.47;0.60;;;18.60;63.30;;;;;;5040713;28;20457;-75
2022/09/02 01:23:11;;;;;;;0.70;0.70;;;18.60;63.60;;;;;;5040755;28;20021;-75
2022/09/02 01:25:37;;;;;;;4.20;0.57;;;18.60;63.60;;;;;;5043317;28;20021;-75
2022/09/02 01:28:12;;;;;;;3.97;0.50;;;18.60;63.60;;;;;;5036375;28;20615;-75
2022/09/02 01:30:41;;;;;;;0.70;0.70;;;18.50;63.60;;;;;;5040053;28;20033;-75
2022/09/02 01:33:07;;;;;;;1.15;0.70;;;18.50;63.90;;;;;;5037364;28;20039;-76
2022/09/02 01:35:36;;;;;;;0.60;0.60;;;18.50;63.90;;;;;;5038641;28;20029;-75
2022/09/02 01:38:02;;;;;;;1.50;0.75;;;18.40;64.10;;;;;;5037189;28;20025;-75
2022/09/02 01:40:29;;;;;;;5.32;0.60;;;18.40;64.30;;;;;;5040580;28;20370;-75
2022/09/02 01:43:10;;;;;;;4.10;0.60;;;18.30;64.60;;;;;;5041816;28;20017;-75
2022/09/02 01:45:39;;;;;;;3.03;0.70;;;18.30;64.60;;;;;;5041874;28;20036;-75
2022/09/02 01:48:08;;;;;;;1.02;0.77;;;18.30;64.70;;;;;;5043363;28;20103;-75
2022/09/02 01:50:37;;;;;;;1.25;0.65;;;18.20;64.80;;;;;;5035251;28;20458;-76
2022/09/02 01:53:03;;;;;;;2.63;0.70;;;18.20;65.10;;;;;;5039009;28;20112;-75
2022/09/02 01:55:30;;;;;;;1.90;0.57;;;18.10;65.10;;;;;;5040585;28;20021;-75
2022/09/02 01:57:56;;;;;;;1.55;0.70;;;18.10;65.40;;;;;;5041783;28;20030;-75
2022/09/02 02:00:22;;;;;;;3.08;0.80;;;18.00;65.60;;;;;;5037113;28;20017;-76
2022/09/02 02:02:50;;;;;;;4.70;0.90;;;18.00;65.80;;;;;;5037496;28;20033;-75
2022/09/02 02:05:16;;;;;;;3.50;1.13;;;18.00;65.90;;;;;;5039847;28;20032;-75
2022/09/02 02:07:43;;;;;;;1.23;0.70;;;17.90;66.10;;;;;;5040961;28;20021;-75
2022/09/02 02:10:11;;;;;;;2.00;0.70;;;17.90;66.10;;;;;;5038567;28;20033;-75
2022/09/02 02:12:38;;;;;;;3.10;0.57;;;17.80;66.20;;;;;;5037577;28;20112;-76
2022/09/02 02:15:10;;;;;;;1.05;0.70;;;17.90;66.40;;;;;;5041996;28;20035;-75
2022/09/02 02:17:38;;;;;;;1.02;0.70;;;17.80;66.50;;;;;;5039448;28;20033;-76
2022/09/02 02:20:06;;;;;;;5.38;0.80;;;17.80;66.70;;;;;;5056005;28;20020;-75
2022/09/02 02:22:35;;;;;;;1.38;0.68;;;17.70;67.00;;;;;;5054202;28;20021;-75
2022/09/02 02:25:01;;;;;;;4.18;0.57;;;17.70;67.00;;;;;;5037354;28;20419;-75
2022/09/02 02:27:27;;;;;;;1.23;0.70;;;17.70;67.10;;;;;;5045896;28;20053;-75
2022/09/02 02:29:54;;;;;;;1.35;0.70;;;17.60;67.10;;;;;;5035120;28;20025;-75
2022/09/02 02:32:20;;;;;;;2.55;0.93;;;17.60;67.30;;;;;;5040608;28;20041;-75
2022/09/02 02:34:46;;;;;;;1.67;0.50;;;17.60;67.40;;;;;;5040588;28;20018;-75
2022/09/02 02:37:14;;;;;;;5.40;0.70;;;17.60;68.30;;;;;;5044140;28;20036;-75
2022/09/02 02:39:41;;;;;;;4.63;0.60;;;17.60;67.60;;;;;;5042738;28;20017;-74
2022/09/02 02:42:08;;;;;;;0.80;0.70;;;17.60;67.80;;;;;;5039612;28;20068;-75
2022/09/02 02:44:34;;;;;;;1.00;0.70;;;17.60;67.80;;;;;;5034217;28;20175;-75
2022/09/02 02:47:00;;;;;;;6.05;0.70;;;17.60;67.90;;;;;;5036675;28;20398;-75
2022/09/02 02:49:26;;;;;;;1.25;0.70;;;17.50;68.00;;;;;;5038464;28;20025;-75
2022/09/02 02:51:55;;;;;;;7.13;0.80;;;17.50;68.90;;;;;;5039553;28;20358;-75
2022/09/02 02:54:21;;;;;;;2.53;0.70;;;17.50;68.30;;;;;;5043719;28;20043;-75
2022/09/02 02:56:47;;;;;;;1.90;0.70;;;17.50;68.10;;;;;;5037309;28;20472;-75
2022/09/02 02:59:13;;;;;;;3.92;0.70;;;17.50;68.00;;;;;;5040457;28;20037;-75
2022/09/02 03:01:41;;;;;;;2.60;0.90;;;17.50;68.10;;;;;;5039089;28;20021;-75
2022/09/02 03:04:06;;;;;;;1.63;0.55;;;17.50;68.40;;;;;;5035461;28;20470;-76
2022/09/02 03:06:35;;;;;;;2.60;0.75;;;17.40;68.40;;;;;;5037438;28;20096;-75
2022/09/02 03:09:00;;;;;;;1.52;0.70;;;17.40;68.60;;;;;;5042087;28;20509;-75
2022/09/02 03:11:27;;;;;;;1.85;0.50;;;17.40;68.80;;;;;;5039919;28;20032;-75
2022/09/02 03:13:53;;;;;;;1.58;0.85;;;17.40;68.90;;;;;;5039039;28;20054;-75
2022/09/02 03:16:22;;;;;;;2.70;0.60;;;17.40;68.90;;;;;;5038962;28;20389;-75
2022/09/02 03:18:49;;;;;;;2.63;0.47;;;17.30;69.00;;;;;;5037753;28;20033;-75
2022/09/02 03:21:18;;;;;;;7.93;0.75;;;17.30;69.00;;;;;;5044660;28;20512;-75
2022/09/02 03:23:46;;;;;;;3.58;0.70;;;17.30;69.00;;;;;;5035870;28;20022;-75
2022/09/02 03:26:16;;;;;;;2.45;0.90;;;17.30;69.20;;;;;;5039231;28;20029;-74
2022/09/02 03:28:44;;;;;;;2.42;0.70;;;17.30;69.40;;;;;;5035930;28;20100;-75
2022/09/02 03:31:19;;;;;;;0.93;0.90;;;17.30;69.50;;;;;;5036272;28;20036;-75
2022/09/02 03:33:51;;;;;;;2.22;0.63;;;17.30;69.40;;;;;;5051416;28;20056;-75
2022/09/02 03:36:20;;;;;;;0.95;0.70;;;17.30;69.40;;;;;;5041533;28;20021;-75
2022/09/02 03:38:46;;;;;;;10.32;0.80;;;17.30;69.40;;;;;;5035394;28;20017;-74
2022/09/02 03:41:14;;;;;;;0.70;0.70;;;17.40;69.40;;;;;;5038697;28;20043;-74
2022/09/02 03:43:42;;;;;;;3.40;0.70;;;17.40;69.40;;;;;;5044028;28;20048;-74
2022/09/02 03:46:08;;;;;;;7.25;0.85;;;17.40;69.20;;;;;;5046509;28;20071;-75
2022/09/02 03:48:37;;;;;;;1.60;1.05;;;17.40;69.10;;;;;;5043290;28;20104;-76
2022/09/02 03:51:04;;;;;;;2.83;0.70;;;17.40;69.10;;;;;;5043436;28;20047;-75
2022/09/02 03:53:30;;;;;;;6.63;0.70;;;17.50;69.00;;;;;;5045754;28;20031;-75
2022/09/02 03:55:58;;;;;;;1.15;0.60;;;17.50;69.10;;;;;;5043104;28;20405;-75
2022/09/02 03:58:29;;;;;;;1.15;0.80;;;17.50;69.00;;;;;;5037620;28;20041;-75
2022/09/02 04:00:57;;;;;;;1.70;0.80;;;17.50;69.00;;;;;;5037642;28;20097;-74
2022/09/02 04:03:26;;;;;;;6.78;0.77;;;17.50;69.00;;;;;;5039662;28;20052;-75
2022/09/02 04:05:54;;;;;;;3.25;0.82;;;17.50;68.80;;;;;;5040906;28;20430;-75
2022/09/02 04:08:20;;;;;;;1.20;0.60;;;17.50;68.70;;;;;;5041165;28;20032;-74
2022/09/02 04:10:45;;;;;;;4.55;0.95;;;17.50;68.80;;;;;;5040270;28;20461;-75
2022/09/02 04:13:11;;;;;;;1.73;0.77;;;17.50;68.80;;;;;;5042116;28;20017;-75
2022/09/02 04:15:43;;;;;;;2.40;0.70;;;17.50;68.90;;;;;;5039691;28;20449;-75
2022/09/02 04:21:39;;;;;;;2.38;0.80;;;17.50;69.10;;;;;;5041955;28;20465;-76
2022/09/02 04:24:09;;;;;;;1.60;0.60;;;17.40;69.30;;;;;;5038520;28;20033;-74
2022/09/02 04:26:38;;;;;;;3.15;0.80;;;17.40;69.60;;;;;;5040788;28;20509;-75
2022/09/02 04:29:05;;;;;;;1.20;0.80;;;17.40;69.40;;;;;;5042309;28;20046;-74
2022/09/02 04:31:31;;;;;;;2.22;0.73;;;17.40;69.60;;;;;;5043520;28;20056;-75
2022/09/02 04:34:00;;;;;;;3.58;0.80;;;17.40;69.70;;;;;;5042288;28;20142;-75
2022/09/02 04:36:27;;;;;;;3.85;0.80;;;17.40;69.70;;;;;;5038830;28;20033;-74
2022/09/02 04:38:56;;;;;;;2.13;1.00;;;17.40;69.60;;;;;;5042011;28;20336;-75
2022/09/02 04:41:26;;;;;;;3.35;0.70;;;17.40;69.60;;;;;;5040768;28;20468;-75
2022/09/02 04:43:55;;;;;;;3.13;0.80;;;17.40;69.60;;;;;;5043586;28;20068;-74
2022/09/02 04:46:21;;;;;;;3.88;0.57;;;17.40;69.70;;;;;;5048884;28;20136;-74
2022/09/02 04:48:50;;;;;;;2.63;0.70;;;17.40;69.80;;;;;;5039621;28;20104;-76
2022/09/02 04:51:21;;;;;;;2.67;0.60;;;17.40;69.80;;;;;;5040493;28;20099;-74
2022/09/02 04:53:51;;;;;;;2.53;0.70;;;17.40;69.70;;;;;;5035764;28;20116;-75
2022/09/02 04:56:23;;;;;;;2.50;0.80;;;17.40;69.80;;;;;;5038793;28;20458;-75
2022/09/02 04:58:50;;;;;;;7.88;0.90;;;17.40;69.90;;;;;;5038752;28;20076;-74
2022/09/02 05:01:25;;;;;;;1.50;0.85;;;17.40;70.00;;;;;;5038492;28;20026;-75
2022/09/02 05:03:52;;;;;;;3.17;0.80;;;17.40;69.90;;;;;;5041288;28;20063;-75
2022/09/02 05:06:25;;;;;;;1.08;0.80;;;17.40;69.90;;;;;;5041605;28;20584;-74
2022/09/02 05:08:50;;;;;;;11.52;1.20;;;17.40;70.00;;;;;;5056597;28;20336;-75
2022/09/02 05:11:27;;;;;;;3.13;0.70;;;17.40;70.00;;;;;;5041287;28;20044;-75
2022/09/02 05:13:54;;;;;;;8.40;1.02;;;17.50;70.00;;;;;;5039565;28;20033;-75
2022/09/02 05:16:25;;;;;;;7.60;0.90;;;17.50;69.90;;;;;;5042623;28;20040;-75
2022/09/02 05:18:53;;;;;;;5.30;1.10;;;17.50;70.60;;;;;;5040396;28;20030;-74
2022/09/02 05:21:19;;;;;;;8.13;0.90;;;17.60;69.70;;;;;;5037494;28;20020;-76
2022/09/02 05:23:44;;;;;;;4.28;0.85;;;17.60;69.60;;;;;;5041773;28;20479;-74
2022/09/02 05:26:13;;;;;;;9.73;1.10;;;17.60;69.60;;;;;;5047084;28;20021;-75
2022/09/02 05:28:42;;;;;;;3.88;0.93;;;17.70;69.70;;;;;;5041717;28;20057;-75
2022/09/02 05:31:14;;;;;;;11.70;0.88;;;17.70;69.50;;;;;;5041066;28;20032;-74
2022/09/02 05:33:40;;;;;;;1.75;1.17;;;17.70;69.50;;;;;;5035434;28;20017;-76
2022/09/02 05:36:11;;;;;;;7.82;1.55;;;17.70;69.50;;;;;;5035472;28;20028;-74
2022/09/02 05:38:37;;;;;;;5.75;0.80;;;17.80;69.40;;;;;;5036469;28;20051;-75
2022/09/02 05:41:08;;;;;;;2.80;0.80;;;17.80;69.40;;;;;;5037381;28;20035;-75
2022/09/02 05:43:38;;;;;;;0.82;0.60;;;17.80;69.30;;;;;;5041666;28;20117;-74
2022/09/02 05:46:08;;;;;;;2.15;0.80;;;17.90;69.20;;;;;;5046007;28;20028;-75
2022/09/02 05:49:21;;;;;;;7.07;1.35;;;17.80;69.50;;;;;;5038588;28;20021;-75
2022/09/02 05:51:22;;;;;;;7.90;0.90;;;17.80;69.30;;;;;;5039231;28;20041;-75
2022/09/02 05:53:53;;;;;;;9.60;1.13;;;17.80;69.50;;;;;;5039584;28;20130;-74
2022/09/02 05:56:20;;;;;;;6.63;1.00;;;17.90;69.60;;;;;;5040576;28;20028;-75
2022/09/02 05:58:46;;;;;;;1.88;0.88;;;17.80;69.60;;;;;;5039195;28;20394;-75
2022/09/02 06:01:17;;;;;;;1.83;0.80;;;17.80;69.60;;;;;;5044052;28;20164;-75
2022/09/02 06:03:43;;;;;;;2.92;0.70;;;17.90;69.70;;;;;;5042990;28;20070;-75
2022/09/02 06:06:09;;;;;;;2.03;0.80;;;18.00;69.60;;;;;;5037345;28;20021;-74
2022/09/02 06:08:35;;;;;;;7.03;1.13;;;18.00;69.60;;;;;;5038371;28;20025;-75
2022/09/02 06:11:02;;;;;;;2.22;0.80;;;17.90;69.60;;;;;;5039249;28;20021;-75
2022/09/02 06:13:30;;;;;;;3.15;0.88;;;18.00;69.70;;;;;;5034607;28;20033;-75
2022/09/02 06:15:56;;;;;;;3.47;0.63;;;18.00;69.80;;;;;;5036662;28;20040;-75
2022/09/02 06:18:23;;;;;;;2.40;0.70;;;18.10;69.70;;;;;;5040610;28;20108;-75
2022/09/02 06:20:54;;;;;;;2.20;0.80;;;18.10;69.60;;;;;;5040024;28;20029;-75
2022/09/02 06:23:19;;;;;;;4.03;0.95;;;18.20;69.40;;;;;;5040169;28;20017;-75
2022/09/02 06:25:47;;;;;;;4.43;1.20;;;18.20;69.30;;;;;;5038342;28;20032;-75
2022/09/02 06:28:14;;;;;;;6.47;1.15;;;18.30;69.20;;;;;;5036143;28;20029;-75
2022/09/02 06:30:41;;;;;;;7.22;1.25;;;18.40;68.90;;;;;;5038954;28;20036;-75
2022/09/02 06:33:12;;;;;;;8.68;1.00;;;18.50;68.70;;;;;;5036011;28;20052;-75
2022/09/02 06:35:42;;;;;;;3.95;0.80;;;18.60;68.60;;;;;;5036311;28;20032;-75
2022/09/02 06:38:09;;;;;;;3.90;0.93;;;18.60;68.40;;;;;;5037593;28;20037;-75
2022/09/02 06:40:38;;;;;;;2.10;0.82;;;18.70;68.40;;;;;;5036555;28;20033;-72
2022/09/02 06:43:04;;;;;;;13.65;2.47;;;18.80;68.00;;;;;;5036270;28;20155;-73
2022/09/02 06:45:30;;;;;;;9.50;1.20;;;18.80;68.00;;;;;;5037056;28;20386;-73
2022/09/02 06:47:56;;;;;;;5.38;1.00;;;18.80;68.00;;;;;;5041009;28;20034;-75
2022/09/02 06:50:21;;;;;;;3.45;0.80;;;18.80;68.00;;;;;;5037973;28;20052;-74
2022/09/02 06:52:47;;;;;;;3.53;1.10;;;18.80;67.90;;;;;;5041381;28;20293;-75
2022/09/02 06:55:13;;;;;;;2.00;1.20;;;18.90;68.00;;;;;;5038277;28;20107;-75
2022/09/02 06:57:38;;;;;;;1.92;0.93;;;19.00;67.90;;;;;;5041498;28;20052;-75
2022/09/02 07:00:07;;;;;;;2.08;0.98;;;19.10;67.70;;;;;;5038015;28;20343;-76
2022/09/02 07:02:35;;;;;;;5.75;1.00;;;19.20;67.40;;;;;;5037091;28;20103;-75
2022/09/02 07:05:13;;;;;;;8.20;1.05;;;19.30;67.30;;;;;;5040968;28;20036;-75
2022/09/02 07:07:41;;;;;;;6.50;1.02;;;19.40;66.70;;;;;;5037190;28;20029;-72
2022/09/02 07:10:10;;;;;;;32.72;12.13;;;19.50;66.80;;;;;;5037999;28;20422;-72
2022/09/02 07:12:40;;;;;;;3.78;1.30;;;19.50;66.80;;;;;;5043076;28;20434;-72
2022/09/02 07:15:07;;;;;;;1.27;0.77;;;19.60;66.90;;;;;;5044649;28;20056;-75
2022/09/02 07:17:33;;;;;;;1.35;0.90;;;19.60;66.20;;;;;;5040839;28;20026;-75
2022/09/02 07:19:59;;;;;;;1.73;0.90;;;19.60;66.20;;;;;;5044631;28;20072;-75
2022/09/02 07:22:26;;;;;;;5.28;0.90;;;19.50;66.50;;;;;;5049808;28;20021;-75
2022/09/02 07:24:52;;;;;;;2.05;1.00;;;19.50;66.70;;;;;;5042587;28;20048;-75
2022/09/02 07:27:19;;;;;;;8.85;1.10;;;19.50;67.00;;;;;;5037976;28;20021;-77
2022/09/02 07:29:47;;;;;;;2.92;0.98;;;19.50;66.80;;;;;;5041421;28;20132;-76
2022/09/02 07:32:13;;;;;;;1.15;0.95;;;19.50;66.90;;;;;;5045387;28;20354;-75
2022/09/02 07:34:41;;;;;;;3.85;1.10;;;19.50;66.90;;;;;;5046351;28;20052;-76
2022/09/02 07:37:07;;;;;;;4.55;1.23;;;19.50;66.80;;;;;;5048273;28;20111;-75
2022/09/02 07:39:33;;;;;;;4.15;1.00;;;19.60;67.00;;;;;;5041689;28;20108;-74
2022/09/02 07:41:58;;;;;;;5.60;1.35;;;19.90;66.70;;;;;;5044388;28;20030;-75
2022/09/02 07:44:26;;;;;;;2.78;0.90;;;20.10;65.90;;;;;;5047904;28;20420;-76
2022/09/02 07:46:55;;;;;;;3.53;1.10;;;20.40;65.50;;;;;;5040323;28;20061;-76
2022/09/02 07:49:21;;;;;;;10.65;1.45;;;20.80;64.30;;;;;;5046483;28;20048;-75
2022/09/02 07:51:48;;;;;;;3.75;1.15;;;21.10;63.70;;;;;;5043410;28;20114;-75
2022/09/02 07:54:15;;;;;;;4.80;1.35;;;21.40;62.70;;;;;;5041591;28;20030;-76
2022/09/02 07:56:44;;;;;;;3.47;0.95;;;21.60;62.20;;;;;;5043910;28;20101;-76
2022/09/02 07:59:12;;;;;;;0.95;0.88;;;21.70;61.70;;;;;;5043270;28;20446;-76
2022/09/02 08:01:38;;;;;;;11.00;1.45;;;21.70;61.20;;;;;;5042431;28;20037;-76
2022/09/02 08:04:05;;;;;;;6.90;1.30;;;21.50;61.10;;;;;;5044648;28;20043;-73
2022/09/02 08:06:32;;;;;;;9.15;2.63;;;21.40;61.60;;;;;;5044444;28;20025;-75
2022/09/02 08:08:58;;;;;;;3.03;1.05;;;21.30;62.10;;;;;;5043539;28;20735;-75
2022/09/02 08:11:24;;;;;;;1.90;0.93;;;21.10;62.40;;;;;;5044789;28;20447;-75
2022/09/02 08:13:53;;;;;;;6.93;1.40;;;21.00;62.70;;;;;;5042980;28;20052;-76
2022/09/02 08:16:19;;;;;;;5.03;0.98;;;20.90;63.20;;;;;;5040593;28;20075;-75
2022/09/02 08:18:45;;;;;;;3.25;1.30;;;20.80;63.70;;;;;;5043397;28;20037;-76
2022/09/02 08:21:12;;;;;;;3.13;0.98;;;20.70;64.30;;;;;;5051799;28;20030;-76
2022/09/02 08:23:37;;;;;;;2.63;1.20;;;20.60;64.70;;;;;;5046782;28;20814;-76
2022/09/02 08:26:04;;;;;;;6.28;1.30;;;20.70;64.80;;;;;;5039210;28;20116;-75
2022/09/02 08:28:32;;;;;;;5.05;1.52;;;20.70;64.90;;;;;;5046208;28;20069;-76
2022/09/02 08:30:58;;;;;;;6.18;1.88;;;20.80;64.90;;;;;;5040659;28;20036;-76
2022/09/02 08:33:27;;;;;;;2.08;1.40;;;20.90;64.70;;;;;;5042454;28;20029;-75
2022/09/02 08:35:53;;;;;;;3.30;1.30;;;21.10;64.60;;;;;;5037610;28;20447;-76
2022/09/02 08:38:20;;;;;;;1.85;1.00;;;21.20;64.30;;;;;;5040126;28;20036;-75
2022/09/02 08:40:46;;;;;;;1.52;1.42;;;21.40;63.80;;;;;;5041017;28;20361;-79
2022/09/02 08:43:36;;;;;;;2.00;1.13;;;21.70;63.50;;;;;;5044180;28;20025;-81
2022/09/02 08:46:07;;;;;;;3.55;1.02;;;21.90;62.80;;;;;;5045096;28;20029;-78
2022/09/02 08:48:32;;;;;;;4.82;1.20;;;22.30;62.50;;;;;;5041805;28;20029;-74
2022/09/02 08:51:06;;;;;;;3.65;1.50;;;22.90;60.90;;;;;;5041735;28;20025;-73
2022/09/02 08:53:36;;;;;;;7.75;1.90;;;23.20;59.80;;;;;;5041485;28;20031;-73
2022/09/02 08:56:04;;;;;;;9.57;1.73;;;23.60;59.20;;;;;;5043246;28;20033;-73
2022/09/02 08:58:40;;;;;;;4.90;1.85;;;24.00;58.30;;;;;;5043529;28;20025;-73
2022/09/02 09:01:28;;;;;;;5.85;1.70;;;24.20;57.50;;;;;;5039150;28;20049;-75
2022/09/02 09:04:17;;;;;;;4.45;1.92;;;24.20;57.40;;;;;;5043659;28;20052;-76
2022/09/02 09:07:13;;;;;;;242.63;110.00;;;24.60;57.20;;;;;;5043883;28;20116;-75
2022/09/02 09:09:48;;;;;;;4.72;1.63;;;25.40;55.90;;;;;;5046186;28;20050;-71
2022/09/02 09:12:29;;;;;;;1.80;1.33;;;25.80;54.80;;;;;;5043635;28;20556;-71
2022/09/02 09:15:06;;;;;;;13.02;2.78;;;26.20;53.50;;;;;;5039570;28;20025;-71
2022/09/02 09:17:44;;;;;;;11.43;1.80;;;26.40;53.20;;;;;;5045508;28;20052;-72
2022/09/02 09:20:29;;;;;;;13.07;1.80;;;26.70;52.10;;;;;;5051699;28;20025;-72
2022/09/02 09:22:57;;;;;;;10.10;2.00;;;27.10;51.40;;;;;;5058492;28;20434;-71
2022/09/02 09:25:28;;;;;;;7.43;1.95;;;26.80;51.10;;;;;;5042763;28;20028;-71
2022/09/02 09:28:01;;;;;;;6.03;1.87;;;26.30;51.70;;;;;;5050709;28;20402;-72
2022/09/02 09:30:29;;;;;;;2.95;1.65;;;26.20;52.30;;;;;;5045358;28;20264;-73
2022/09/02 09:32:59;;;;;;;6.78;1.70;;;26.30;52.60;;;;;;5040619;28;20037;-71
2022/09/02 09:35:50;;;;;;;5.40;1.80;;;26.90;52.50;;;;;;5042800;28;20021;-72
2022/09/02 09:38:29;;;;;;;4.00;1.95;;;27.70;51.40;;;;;;5041546;28;20030;-71
2022/09/02 09:41:15;;;;;;;4.50;1.83;;;28.70;50.20;;;;;;5039425;28;20102;-72
2022/09/02 09:43:43;;;;;;;3.80;1.77;;;29.60;49.10;;;;;;5043583;28;20117;-72
2022/09/02 09:46:26;;;;;;;14.25;2.22;;;30.10;48.00;;;;;;5041192;28;20406;-74
2022/09/02 09:48:52;;;;;;;11.95;2.53;;;31.00;46.80;;;;;;5038915;28;20028;-71
2022/09/02 09:51:18;;;;;;;5.10;2.00;;;31.10;45.70;;;;;;5040320;28;20086;-71
2022/09/02 09:53:44;;;;;;;5.28;2.00;;;30.20;46.00;;;;;;5040254;28;20331;-72
2022/09/02 09:56:13;;;;;;;4.97;2.20;;;29.50;47.20;;;;;;5042349;28;20033;-71
2022/09/02 09:58:38;;;;;;;2.53;1.92;;;28.90;48.10;;;;;;5038055;28;20119;-71
2022/09/02 10:01:10;;;;;;;6.07;2.10;;;28.60;48.80;;;;;;5037995;28;20398;-71
2022/09/02 10:03:41;;;;;;;5.63;2.13;;;29.40;48.10;;;;;;5037187;28;20084;-72
2022/09/02 10:06:22;;;;;;;9.50;2.03;;;30.00;47.40;;;;;;5054766;28;20021;-72
2022/09/02 10:08:50;;;;;;;7.47;2.10;;;30.40;46.10;;;;;;5044978;28;20325;-72
2022/09/02 10:11:25;;;;;;;6.43;2.22;;;30.10;46.10;;;;;;5039423;28;20029;-72
2022/09/02 10:14:07;;;;;;;6.80;2.33;;;30.10;46.50;;;;;;5039135;28;20025;-72
2022/09/02 10:16:48;;;;;;;8.43;2.25;;;30.10;46.10;;;;;;5044663;28;20039;-71
2022/09/02 10:19:46;;;;;;;4.95;2.83;;;30.30;45.90;;;;;;5058353;28;20503;-72
2022/09/02 10:22:15;;;;;;;157.55;85.43;;;30.10;46.10;;;;;;5046834;28;20041;-73
2022/09/02 10:24:55;;;;;;;8.07;4.65;;;29.90;46.10;;;;;;5040410;28;20839;-73
2022/09/02 10:27:50;;;;;;;24.23;9.15;;;29.60;47.20;;;;;;5048345;28;20024;-74
2022/09/02 10:30:21;;;;;;;6.63;2.10;;;29.90;46.90;;;;;;5047796;28;20056;-76
2022/09/02 10:32:55;;;;;;;14.55;2.10;;;30.30;46.00;;;;;;5036584;28;20025;-77
2022/09/02 10:35:39;;;;;;;2.55;1.90;;;30.20;46.00;;;;;;5036905;28;20025;-76
2022/09/02 10:38:35;;;;;;;2.90;2.00;;;30.20;46.00;;;;;;5040166;28;20040;-76
2022/09/02 10:41:21;;;;;;;7.88;2.22;;;30.10;46.20;;;;;;5041622;28;20447;-76
2022/09/02 10:44:06;;;;;;;4.13;2.05;;;29.90;46.00;;;;;;5032609;28;20033;-76
2022/09/02 10:46:46;;;;;;;4.65;2.35;;;30.10;45.90;;;;;;5042427;28;20456;-76
2022/09/02 10:49:50;;;;;;;3.53;2.38;;;30.40;45.90;;;;;;5040145;28;20056;-76
2022/09/02 10:52:26;;;;;;;;;;;30.60;45.40;;;;;;5037110;28;20021;-76
2022/09/02 10:55:18;;;;;;;8.00;2.42;;;30.70;44.70;;;;;;5039926;28;19927;-77
2022/09/02 10:58:10;;;;;;;2.95;2.10;;;30.20;45.00;;;;;;5046123;28;20025;-78
2022/09/02 11:00:43;;;;;;;4.30;2.28;;;30.20;45.40;;;;;;5036850;28;20065;-77
2022/09/02 11:03:16;;;;;;;19.73;10.30;;;30.60;45.30;;;;;;5042616;28;20117;-73
2022/09/02 11:06:10;;;;;;;58.40;27.98;;;30.80;44.90;;;;;;5037913;28;20158;-73
2022/09/02 11:08:53;;;;;;;2.33;2.10;;;31.30;44.40;;;;;;5039020;28;20323;-77
2022/09/02 11:11:37;;;;;;;3.72;2.50;;;31.40;44.20;;;;;;5043249;28;20520;-77
2022/09/02 11:14:23;;;;;;;8.32;2.20;;;31.30;44.20;;;;;;5036153;28;20441;-76
2022/09/02 11:16:51;;;;;;;6.53;2.42;;;31.70;43.40;;;;;;5036180;28;20037;-77
2022/09/02 11:19:35;;;;;;;9.18;2.10;;;31.50;42.70;;;;;;5036827;28;20029;-77
2022/09/02 11:22:46;;;;;;;5.63;2.17;;;30.90;43.20;;;;;;5044980;28;20426;-77
2022/09/02 11:25:18;;;;;;;4.88;2.15;;;30.60;44.20;;;;;;5038123;28;20394;-77
2022/09/02 11:27:54;;;;;;;7.60;2.45;;;30.20;43.50;;;;;;5045193;28;20030;-75
2022/09/02 11:30:30;;;;;;;2.75;2.45;;;29.70;44.40;;;;;;5034663;28;20052;-74
2022/09/02 11:33:10;;;;;;;5.13;2.10;;;29.60;44.60;;;;;;5051109;28;20104;-76
2022/09/02 11:35:38;;;;;;;19.50;9.15;;;29.40;44.90;;;;;;5039909;28;20107;-74
2022/09/02 11:38:18;;;;;;;52.33;21.08;;;29.30;44.90;;;;;;5038146;28;20102;-80
2022/09/02 11:40:47;;;;;;;6.68;2.20;;;29.60;44.50;;;;;;5040382;28;20033;-77
2022/09/02 11:43:24;;;;;;;3.70;2.30;;;29.90;44.20;;;;;;5038680;28;20367;-78
2022/09/02 11:46:27;;;;;;;5.18;2.25;;;29.80;44.30;;;;;;5048160;28;20055;-78
2022/09/02 11:49:26;;;;;;;3.80;2.60;;;29.60;43.90;;;;;;5045839;28;20041;-78
2022/09/02 11:52:06;;;;;;;4.32;2.67;;;30.20;44.30;;;;;;5037406;28;20367;-78
2022/09/02 11:54:38;;;;;;;3.13;2.03;;;30.40;42.70;;;;;;5056442;28;20044;-78
2022/09/02 11:57:07;;;;;;;8.45;2.30;;;30.50;42.90;;;;;;5047433;28;20029;-79
2022/09/02 11:59:53;;;;;;;9.68;2.33;;;30.50;43.30;;;;;;5042251;28;20128;-78
2022/09/02 12:02:37;;;;;;;2.67;2.10;;;30.40;42.60;;;;;;5039907;28;20033;-79
2022/09/02 12:05:31;;;;;;;5.88;2.13;;;30.50;41.80;;;;;;5040801;28;20039;-79
2022/09/02 12:08:00;;;;;;;7.28;2.05;;;30.70;42.20;;;;;;5042429;28;20037;-78
2022/09/02 12:10:48;;;;;;;7.43;2.15;;;30.50;42.30;;;;;;5045610;28;20078;-77
2022/09/02 12:13:40;;;;;;;2.42;2.20;;;30.40;42.00;;;;;;5042751;28;20402;-77
2022/09/02 12:16:18;;;;;;;5.65;2.00;;;30.50;42.00;;;;;;5039296;28;20022;-77
2022/09/02 12:19:07;;;;;;;3.95;1.95;;;30.60;42.00;;;;;;5048802;28;20295;-78
2022/09/02 12:21:34;;;;;;;3.63;1.75;;;30.50;42.60;;;;;;5041607;28;20073;-79
2022/09/02 12:24:00;;;;;;;3.58;1.98;;;30.40;42.00;;;;;;5042286;28;20047;-74
2022/09/02 12:26:29;;;;;;;5.10;2.00;;;30.20;41.10;;;;;;5043778;28;20096;-78
2022/09/02 12:29:17;;;;;;;5.30;2.10;;;30.50;40.80;;;;;;5039388;28;20031;-78
2022/09/02 12:31:48;;;;;;;2.30;2.10;;;30.60;40.70;;;;;;5041131;28;20491;-77
2022/09/02 12:34:19;;;;;;;4.75;1.90;;;31.20;39.80;;;;;;5055595;28;20061;-78
2022/09/02 12:36:51;;;;;;;3.35;1.40;;;31.60;39.40;;;;;;5038253;28;20099;-79
2022/09/02 12:39:23;;;;;;;5.75;2.08;;;31.50;39.40;;;;;;5044919;28;20029;-77
2022/09/02 12:42:09;;;;;;;2.47;1.60;;;31.70;39.80;;;;;;5044012;28;20082;-80
2022/09/02 12:45:13;;;;;;;4.13;1.88;;;31.90;39.30;;;;;;5040407;28;20021;-79
2022/09/02 12:47:54;;;;;;;4.07;1.77;;;31.70;38.80;;;;;;5044287;28;20025;-79
2022/09/02 12:50:49;;;;;;;5.57;1.75;;;31.40;38.10;;;;;;5054273;28;20021;-80
2022/09/02 12:53:32;;;;;;;1.70;1.60;;;31.70;38.50;;;;;;5038506;28;20025;-78
2022/09/02 12:56:03;;;;;;;;;;;31.20;37.70;;;;;;5048797;28;20362;-78
2022/09/02 12:58:44;;;;;;;1.48;1.38;;;31.00;38.10;;;;;;5043728;28;19921;-77
2022/09/02 13:01:35;;;;;;;3.58;2.20;;;30.90;38.80;;;;;;5044346;28;20063;-78
2022/09/02 13:04:31;;;;;;;4.00;1.85;;;30.50;38.80;;;;;;5044168;28;20052;-79
2022/09/02 13:07:06;;;;;;;3.38;2.40;;;30.20;39.20;;;;;;5039799;28;20056;-78
2022/09/02 13:09:47;;;;;;;3.00;1.98;;;30.10;40.10;;;;;;5047922;28;20047;-78
2022/09/02 13:12:31;;;;;;;5.78;2.00;;;30.10;40.30;;;;;;5041846;28;20021;-77